Time;durP1;ratioP1;P1;durP2;ratioP2;P2;SDS_P1;SDS_P2;PMS_P1;PMS_P2;Temp;Humidity;BMP_temperature;BMP_pressure;BME280_temperature;BME280_humidity;BME280_pressure;Samples;Min_cycle;Max_cycle;Signal;HPM_P1;HPM_P2
2023/06/14 00:00:53;;;;;;;8.25;7.18;;;;;;;;;;5066754;28;20075;-77
2023/06/14 00:03:22;;;;;;;11.30;7.25;;;;;;;;;;5067408;28;20024;-77
2023/06/14 00:05:48;;;;;;;9.38;7.00;;;;;;;;;;5068705;28;20020;-76
2023/06/14 00:08:15;;;;;;;9.02;7.28;;;;;;;;;;5065111;28;20033;-78
2023/06/14 00:10:41;;;;;;;9.07;7.13;;;;;;;;;;5069711;28;20036;-77
2023/06/14 00:13:08;;;;;;;10.40;7.70;;;;;;;;;;5063814;28;20020;-77
2023/06/14 00:15:35;;;;;;;9.38;8.23;;;;;;;;;;5066062;28;20032;-77
2023/06/14 00:18:02;;;;;;;8.93;7.82;;;;;;;;;;5069294;28;20028;-77
2023/06/14 00:20:28;;;;;;;9.13;8.00;;;;;;;;;;5077674;28;20047;-77
2023/06/14 00:22:58;;;;;;;8.82;7.93;;;;;;;;;;5052894;28;20024;-77
2023/06/14 00:25:27;;;;;;;9.93;7.70;;;;;;;;;;5067712;28;20029;-77
2023/06/14 00:27:53;;;;;;;9.23;8.02;;;;;;;;;;5050013;28;20831;-77
2023/06/14 00:30:20;;;;;;;10.18;8.23;;;;;;;;;;5067667;28;20028;-77
2023/06/14 00:32:46;;;;;;;10.50;7.95;;;;;;;;;;5058064;28;20057;-77
2023/06/14 00:35:13;;;;;;;9.45;7.90;;;;;;;;;;5068156;28;20105;-77
2023/06/14 00:37:39;;;;;;;10.38;7.90;;;;;;;;;;5044407;28;20028;-76
2023/06/14 00:40:06;;;;;;;9.52;8.50;;;;;;;;;;5069915;28;20420;-77
2023/06/14 00:42:32;;;;;;;12.10;8.82;;;;;;;;;;5065740;28;20514;-77
2023/06/14 00:44:58;;;;;;;10.82;8.38;;;;;;;;;;5046490;28;20024;-77
2023/06/14 00:47:25;;;;;;;10.07;8.98;;;;;;;;;;5065598;28;20940;-77
2023/06/14 00:49:51;;;;;;;10.27;8.73;;;;;;;;;;5064747;28;20124;-77
2023/06/14 00:52:18;;;;;;;9.73;8.48;;;;;;;;;;5051269;28;20032;-76
2023/06/14 00:54:45;;;;;;;10.13;8.93;;;;;;;;;;5044171;28;20021;-77
2023/06/14 00:57:11;;;;;;;9.52;8.52;;;;;;;;;;5066613;28;20028;-77
2023/06/14 00:59:45;;;;;;;11.25;8.40;;;;;;;;;;5053335;28;20059;-76
2023/06/14 01:02:11;;;;;;;10.65;8.90;;;;;;;;;;5064666;28;20035;-76
2023/06/14 01:04:38;;;;;;;13.25;8.73;;;;;;;;;;5062130;28;20047;-77
2023/06/14 01:07:13;;;;;;;9.93;8.88;;;;;;;;;;5050995;28;20140;-76
2023/06/14 01:09:39;;;;;;;;;;;;;;;;;;5062270;28;20063;-75
2023/06/14 01:12:11;;;;;;;14.25;9.73;;;;;;;;;;5065153;28;20377;-77
2023/06/14 01:14:37;;;;;;;10.18;8.88;;;;;;;;;;5063315;28;20024;-77
2023/06/14 01:17:04;;;;;;;11.27;9.25;;;;;;;;;;5066665;28;20497;-77
2023/06/14 01:19:31;;;;;;;10.13;8.98;;;;;;;;;;5065602;28;20020;-77
2023/06/14 01:21:57;;;;;;;10.15;8.55;;;;;;;;;;5064979;28;20099;-77
2023/06/14 01:24:25;;;;;;;10.68;9.00;;;;;;;;;;5051132;28;20477;-77
2023/06/14 01:26:55;;;;;;;10.45;9.23;;;;;;;;;;5070585;28;20461;-77
2023/06/14 01:29:22;;;;;;;16.15;10.50;;;;;;;;;;5064922;28;20144;-77
2023/06/14 01:31:49;;;;;;;11.88;9.25;;;;;;;;;;5047445;28;20409;-77
2023/06/14 01:34:15;;;;;;;10.30;8.85;;;;;;;;;;5064889;28;20070;-77
2023/06/14 01:36:44;;;;;;;15.73;9.10;;;;;;;;;;5047512;28;20560;-76
2023/06/14 01:39:15;;;;;;;11.30;9.27;;;;;;;;;;5052675;28;20520;-76
2023/06/14 01:41:42;;;;;;;14.00;9.40;;;;;;;;;;5063761;28;20131;-76
2023/06/14 01:44:09;;;;;;;11.80;9.63;;;;;;;;;;5037857;28;20028;-77
2023/06/14 01:46:35;;;;;;;10.93;9.75;;;;;;;;;;5045504;28;20485;-78
2023/06/14 01:49:02;;;;;;;14.57;10.57;;;;;;;;;;5064088;28;20691;-78
2023/06/14 01:51:28;;;;;;;12.00;9.98;;;;;;;;;;5051225;28;20465;-78
2023/06/14 01:53:55;;;;;;;11.52;9.65;;;;;;;;;;5057893;28;20017;-78
2023/06/14 01:56:21;;;;;;;15.20;10.38;;;;;;;;;;5061205;28;20103;-79
2023/06/14 01:58:48;;;;;;;12.32;9.77;;;;;;;;;;5061776;28;20025;-78
2023/06/14 02:01:16;;;;;;;14.30;10.60;;;;;;;;;;5068295;28;20439;-79
2023/06/14 02:03:44;;;;;;;13.48;10.45;;;;;;;;;;5068792;28;20021;-78
2023/06/14 02:06:12;;;;;;;12.50;10.50;;;;;;;;;;5063307;28;20066;-78
2023/06/14 02:08:38;;;;;;;13.43;9.88;;;;;;;;;;5070613;28;20016;-76
2023/06/14 02:11:04;;;;;;;11.93;10.52;;;;;;;;;;5066951;28;20451;-78
2023/06/14 02:13:30;;;;;;;15.98;10.57;;;;;;;;;;5064257;28;20108;-78
2023/06/14 02:15:57;;;;;;;11.50;9.70;;;;;;;;;;5065096;28;20086;-79
2023/06/14 02:18:24;;;;;;;12.48;10.15;;;;;;;;;;5069422;28;20422;-75
2023/06/14 02:20:50;;;;;;;13.30;9.73;;;;;;;;;;5047742;28;20600;-78
2023/06/14 02:23:16;;;;;;;14.30;9.90;;;;;;;;;;5067627;28;20037;-78
2023/06/14 02:25:44;;;;;;;11.52;10.15;;;;;;;;;;5065618;28;20042;-79
2023/06/14 02:28:10;;;;;;;12.00;10.05;;;;;;;;;;5049358;28;20032;-78
2023/06/14 02:30:36;;;;;;;12.75;9.73;;;;;;;;;;5063940;28;20107;-78
2023/06/14 02:33:04;;;;;;;12.02;9.80;;;;;;;;;;5063428;28;20132;-78
2023/06/14 02:35:31;;;;;;;12.93;10.38;;;;;;;;;;5066364;28;20052;-76
2023/06/14 02:37:57;;;;;;;14.25;11.35;;;;;;;;;;5061642;28;20032;-76
2023/06/14 02:40:23;;;;;;;10.93;9.77;;;;;;;;;;5074100;28;20486;-76
2023/06/14 02:42:49;;;;;;;13.27;9.77;;;;;;;;;;5066719;28;20064;-77
2023/06/14 02:45:16;;;;;;;15.38;10.20;;;;;;;;;;5063474;28;20032;-76
2023/06/14 02:47:42;;;;;;;13.63;9.77;;;;;;;;;;5052042;28;20043;-76
2023/06/14 02:50:08;;;;;;;13.68;9.18;;;;;;;;;;5068381;28;20035;-76
2023/06/14 02:52:34;;;;;;;13.63;9.63;;;;;;;;;;5067506;28;20028;-76
2023/06/14 02:55:01;;;;;;;12.27;8.90;;;;;;;;;;5069507;28;20047;-76
2023/06/14 02:57:27;;;;;;;12.73;8.73;;;;;;;;;;5049101;28;20036;-76
2023/06/14 02:59:53;;;;;;;11.40;9.13;;;;;;;;;;5076914;28;20093;-76
2023/06/14 03:02:20;;;;;;;11.65;8.73;;;;;;;;;;5070566;28;20039;-76
2023/06/14 03:04:47;;;;;;;13.18;8.77;;;;;;;;;;5067969;28;20037;-76
2023/06/14 03:07:19;;;;;;;11.35;8.80;;;;;;;;;;5067442;28;20035;-78
2023/06/14 03:09:46;;;;;;;12.43;8.75;;;;;;;;;;5068174;28;20029;-76
2023/06/14 03:12:13;;;;;;;10.73;8.68;;;;;;;;;;5061942;28;20033;-76
2023/06/14 03:14:39;;;;;;;11.43;8.63;;;;;;;;;;5065568;28;20055;-76
2023/06/14 03:17:05;;;;;;;9.63;8.15;;;;;;;;;;5080741;28;20042;-77
2023/06/14 03:19:31;;;;;;;10.52;8.65;;;;;;;;;;5066510;28;20124;-76
2023/06/14 03:21:58;;;;;;;10.38;8.20;;;;;;;;;;5073935;28;20082;-76
2023/06/14 03:24:27;;;;;;;9.60;8.02;;;;;;;;;;5074032;28;20115;-76
2023/06/14 03:26:54;;;;;;;10.68;8.05;;;;;;;;;;5068796;28;20036;-77
2023/06/14 03:29:20;;;;;;;9.48;8.00;;;;;;;;;;5050123;28;20036;-77
2023/06/14 03:32:00;;;;;;;10.20;7.85;;;;;;;;;;5053045;28;20056;-76
2023/06/14 03:34:26;;;;;;;9.20;7.63;;;;;;;;;;5065441;28;20529;-76
2023/06/14 03:36:52;;;;;;;10.45;7.43;;;;;;;;;;5066855;28;20147;-76
2023/06/14 03:39:19;;;;;;;8.13;7.07;;;;;;;;;;5068910;28;20024;-76
2023/06/14 03:41:45;;;;;;;8.82;7.32;;;;;;;;;;5069327;28;20130;-77
2023/06/14 03:44:11;;;;;;;8.93;7.13;;;;;;;;;;5067646;28;20119;-76
2023/06/14 03:46:37;;;;;;;7.93;7.10;;;;;;;;;;5067685;28;20548;-77
2023/06/14 03:49:04;;;;;;;9.10;7.65;;;;;;;;;;5069496;28;20103;-76
2023/06/14 03:51:30;;;;;;;8.02;6.93;;;;;;;;;;5068920;28;20050;-77
2023/06/14 03:53:56;;;;;;;11.20;6.95;;;;;;;;;;5065516;28;20040;-76
2023/06/14 03:56:22;;;;;;;7.35;6.57;;;;;;;;;;5066333;28;20070;-76
2023/06/14 03:58:48;;;;;;;9.90;7.53;;;;;;;;;;5068727;28;20024;-76
2023/06/14 04:01:14;;;;;;;9.35;6.90;;;;;;;;;;5071105;28;20480;-77
2023/06/14 04:03:41;;;;;;;9.27;6.55;;;;;;;;;;5049912;28;20078;-76
2023/06/14 04:06:07;;;;;;;9.07;6.30;;;;;;;;;;5046616;28;20050;-77
2023/06/14 04:08:34;;;;;;;7.32;6.53;;;;;;;;;;5066929;28;20036;-76
2023/06/14 04:11:01;;;;;;;7.43;6.00;;;;;;;;;;5067623;28;20052;-76
2023/06/14 04:13:27;;;;;;;7.93;6.22;;;;;;;;;;5072841;28;20036;-76
2023/06/14 04:15:53;;;;;;;7.88;5.68;;;;;;;;;;5056654;28;20052;-76
2023/06/14 04:18:20;;;;;;;6.47;5.47;;;;;;;;;;5061405;28;20025;-76
2023/06/14 04:20:48;;;;;;;7.60;5.43;;;;;;;;;;5063211;28;20043;-77
2023/06/14 04:23:18;;;;;;;8.05;5.53;;;;;;;;;;5054711;28;20040;-77
2023/06/14 04:25:45;;;;;;;8.23;6.28;;;;;;;;;;5068961;28;20400;-77
2023/06/14 04:28:18;;;;;;;5.55;5.00;;;;;;;;;;5068513;28;20041;-76
2023/06/14 04:30:44;;;;;;;6.30;5.15;;;;;;;;;;5066392;28;20428;-77
2023/06/14 04:33:11;;;;;;;8.13;5.45;;;;;;;;;;5060947;28;20045;-77
2023/06/14 04:35:38;;;;;;;6.65;5.53;;;;;;;;;;5067357;28;20024;-77
2023/06/14 04:38:04;;;;;;;7.90;5.43;;;;;;;;;;5045984;28;20155;-77
2023/06/14 04:40:31;;;;;;;10.95;5.30;;;;;;;;;;5064521;28;20042;-77
2023/06/14 04:43:00;;;;;;;9.52;5.43;;;;;;;;;;5067635;28;20028;-77
2023/06/14 04:45:31;;;;;;;6.88;5.63;;;;;;;;;;5066403;28;20458;-77
2023/06/14 04:47:59;;;;;;;7.38;6.00;;;;;;;;;;5073886;28;20028;-77
2023/06/14 04:50:25;;;;;;;6.90;5.13;;;;;;;;;;5059923;28;20064;-77
2023/06/14 04:52:52;;;;;;;7.50;5.22;;;;;;;;;;5066997;28;20469;-77
2023/06/14 04:55:19;;;;;;;7.18;5.55;;;;;;;;;;5064456;28;20035;-77
2023/06/14 04:57:46;;;;;;;7.28;5.43;;;;;;;;;;5067103;28;20074;-77
2023/06/14 05:00:12;;;;;;;9.98;5.70;;;;;;;;;;5065360;28;20033;-77
2023/06/14 05:02:40;;;;;;;7.38;5.47;;;;;;;;;;5068102;28;20029;-78
2023/06/14 05:05:07;;;;;;;6.63;5.68;;;;;;;;;;5062808;28;20476;-77
2023/06/14 05:07:34;;;;;;;6.22;5.10;;;;;;;;;;5067139;28;20059;-77
2023/06/14 05:10:01;;;;;;;6.45;5.03;;;;;;;;;;5070203;28;20377;-77
2023/06/14 05:12:29;;;;;;;6.80;6.07;;;;;;;;;;5041672;28;20017;-77
2023/06/14 05:14:55;;;;;;;6.57;5.25;;;;;;;;;;5063644;28;20021;-79
2023/06/14 05:17:22;;;;;;;6.32;5.15;;;;;;;;;;5057483;28;20059;-79
2023/06/14 05:19:48;;;;;;;6.07;5.47;;;;;;;;;;5057596;28;20021;-80
2023/06/14 05:22:14;;;;;;;6.72;5.57;;;;;;;;;;5062693;28;20032;-79
2023/06/14 05:24:41;;;;;;;7.38;5.28;;;;;;;;;;5062609;28;20060;-77
2023/06/14 05:27:08;;;;;;;6.80;5.97;;;;;;;;;;5062018;28;20049;-77
2023/06/14 05:29:34;;;;;;;9.57;6.40;;;;;;;;;;5068112;28;20025;-77
2023/06/14 05:32:00;;;;;;;7.45;5.45;;;;;;;;;;5065764;28;20576;-77
2023/06/14 05:34:26;;;;;;;6.00;5.40;;;;;;;;;;5053920;28;20036;-80
2023/06/14 05:36:53;;;;;;;8.73;5.47;;;;;;;;;;5063909;28;20028;-81
2023/06/14 05:39:19;;;;;;;7.93;6.30;;;;;;;;;;5068080;28;20049;-80
2023/06/14 05:41:45;;;;;;;6.65;5.78;;;;;;;;;;5055106;28;20067;-78
2023/06/14 05:44:11;;;;;;;6.75;5.18;;;;;;;;;;5041071;28;20090;-78
2023/06/14 05:46:39;;;;;;;7.65;5.82;;;;;;;;;;5066321;28;20078;-81
2023/06/14 05:49:06;;;;;;;7.90;5.50;;;;;;;;;;5072882;28;20021;-82
2023/06/14 05:51:32;;;;;;;8.05;5.53;;;;;;;;;;5066180;28;20374;-82
2023/06/14 05:53:58;;;;;;;7.07;5.50;;;;;;;;;;5060264;28;20025;-82
2023/06/14 05:56:25;;;;;;;8.00;6.20;;;;;;;;;;5067660;28;20025;-85
2023/06/14 05:58:52;;;;;;;8.73;5.63;;;;;;;;;;5061532;28;20029;-81
2023/06/14 06:01:19;;;;;;;6.55;5.80;;;;;;;;;;5060552;28;20120;-82
2023/06/14 06:03:45;;;;;;;7.97;5.40;;;;;;;;;;5058551;28;20029;-79
2023/06/14 06:06:12;;;;;;;6.05;5.45;;;;;;;;;;5043125;28;20549;-79
2023/06/14 06:08:38;;;;;;;7.45;5.85;;;;;;;;;;5064023;28;20424;-79
2023/06/14 06:11:04;;;;;;;7.15;5.10;;;;;;;;;;5071868;28;20392;-79
2023/06/14 06:13:30;;;;;;;5.85;5.03;;;;;;;;;;5062557;28;20024;-79
2023/06/14 06:15:56;;;;;;;10.00;5.50;;;;;;;;;;5062985;28;20480;-79
2023/06/14 06:18:23;;;;;;;7.07;5.43;;;;;;;;;;5065662;28;20028;-79
2023/06/14 06:20:49;;;;;;;9.05;5.68;;;;;;;;;;5064411;28;20049;-81
2023/06/14 06:23:15;;;;;;;6.95;5.43;;;;;;;;;;5062543;28;20474;-79
2023/06/14 06:25:41;;;;;;;7.00;5.55;;;;;;;;;;5063495;28;20044;-80
2023/06/14 06:28:08;;;;;;;6.85;5.18;;;;;;;;;;5046082;28;20389;-80
2023/06/14 06:30:35;;;;;;;6.18;5.32;;;;;;;;;;5071727;28;20027;-81
2023/06/14 06:33:03;;;;;;;8.77;5.55;;;;;;;;;;5069860;28;20032;-80
2023/06/14 06:35:30;;;;;;;6.50;4.60;;;;;;;;;;5050520;28;20039;-82
2023/06/14 06:37:57;;;;;;;5.30;4.30;;;;;;;;;;5064566;28;20068;-81
2023/06/14 06:40:23;;;;;;;7.68;4.80;;;;;;;;;;5058165;28;20029;-83
2023/06/14 06:42:50;;;;;;;8.02;4.88;;;;;;;;;;5056078;28;20094;-80
2023/06/14 06:45:16;;;;;;;5.78;4.60;;;;;;;;;;5052867;28;20067;-79
2023/06/14 06:47:42;;;;;;;8.40;5.00;;;;;;;;;;5066825;28;20035;-80
2023/06/14 06:50:08;;;;;;;7.20;4.38;;;;;;;;;;5065345;28;20436;-81
2023/06/14 06:52:35;;;;;;;8.45;4.90;;;;;;;;;;5066559;28;20033;-80
2023/06/14 06:55:04;;;;;;;9.98;5.05;;;;;;;;;;5061374;28;20020;-79
2023/06/14 06:57:30;;;;;;;6.63;4.45;;;;;;;;;;5047906;28;20024;-81
2023/06/14 06:59:57;;;;;;;7.88;4.65;;;;;;;;;;5057827;28;20450;-84
2023/06/14 07:02:23;;;;;;;11.63;4.63;;;;;;;;;;5066784;28;20020;-79
2023/06/14 07:04:50;;;;;;;7.68;4.65;;;;;;;;;;5067051;28;20549;-82
2023/06/14 07:07:16;;;;;;;7.65;5.00;;;;;;;;;;5047734;28;20119;-81
2023/06/14 07:09:42;;;;;;;6.22;4.22;;;;;;;;;;5068541;28;20768;-81
2023/06/14 07:12:09;;;;;;;7.05;4.53;;;;;;;;;;5065800;28;20251;-82
2023/06/14 07:14:35;;;;;;;7.40;4.70;;;;;;;;;;5067665;28;20032;-80
2023/06/14 07:17:01;;;;;;;7.32;4.32;;;;;;;;;;5067307;28;20074;-79
2023/06/14 07:19:27;;;;;;;9.02;4.70;;;;;;;;;;5051832;28;20416;-79
2023/06/14 07:21:53;;;;;;;5.55;4.50;;;;;;;;;;5065444;28;20058;-87
2023/06/14 07:24:21;;;;;;;5.55;4.72;;;;;;;;;;5071338;28;20038;-81
2023/06/14 07:26:48;;;;;;;7.47;4.47;;;;;;;;;;5072521;28;20020;-81
2023/06/14 07:29:16;;;;;;;10.55;4.65;;;;;;;;;;5051443;28;20024;-82
2023/06/14 07:31:43;;;;;;;5.70;4.63;;;;;;;;;;5065505;28;20078;-79
2023/06/14 07:34:09;;;;;;;5.88;4.25;;;;;;;;;;5045816;28;20110;-77
2023/06/14 07:36:36;;;;;;;7.50;4.93;;;;;;;;;;5047323;28;20029;-77
2023/06/14 07:39:03;;;;;;;8.82;4.60;;;;;;;;;;5046669;28;20475;-78
2023/06/14 07:41:29;;;;;;;5.40;4.00;;;;;;;;;;5044825;28;20491;-79
2023/06/14 07:43:55;;;;;;;6.75;4.40;;;;;;;;;;5044338;28;20044;-78
2023/06/14 07:46:22;;;;;;;5.10;4.32;;;;;;;;;;5069326;28;20064;-81
2023/06/14 07:48:48;;;;;;;9.75;4.28;;;;;;;;;;5064185;28;20028;-78
2023/06/14 07:51:14;;;;;;;5.40;4.07;;;;;;;;;;5065785;28;20038;-78
2023/06/14 07:53:41;;;;;;;9.88;4.45;;;;;;;;;;5045002;28;20439;-79
2023/06/14 07:56:08;;;;;;;12.02;4.40;;;;;;;;;;5047549;28;20020;-78
2023/06/14 07:58:34;;;;;;;7.32;4.15;;;;;;;;;;5046506;28;20082;-79
2023/06/14 08:01:01;;;;;;;9.15;4.38;;;;;;;;;;5066764;28;20120;-78
2023/06/14 08:03:27;;;;;;;7.30;4.60;;;;;;;;;;5063803;28;20021;-79
2023/06/14 08:05:53;;;;;;;7.80;4.30;;;;;;;;;;5047103;28;20039;-79
2023/06/14 08:08:20;;;;;;;7.00;4.68;;;;;;;;;;5051215;28;20032;-81
2023/06/14 08:10:46;;;;;;;8.02;5.00;;;;;;;;;;5065436;28;20695;-79
2023/06/14 08:13:12;;;;;;;5.30;4.10;;;;;;;;;;5063001;28;20029;-78
2023/06/14 08:15:38;;;;;;;6.65;4.13;;;;;;;;;;5064435;28;20139;-80
2023/06/14 08:18:04;;;;;;;6.10;4.38;;;;;;;;;;5063242;28;20347;-78
2023/06/14 08:20:31;;;;;;;4.93;4.00;;;;;;;;;;5046631;28;20028;-80
2023/06/14 08:22:58;;;;;;;6.35;4.22;;;;;;;;;;5047516;28;20036;-78
2023/06/14 08:25:24;;;;;;;5.97;4.40;;;;;;;;;;5066668;28;20433;-79
2023/06/14 08:27:51;;;;;;;5.00;4.15;;;;;;;;;;5065340;28;20043;-79
2023/06/14 08:30:17;;;;;;;5.72;3.97;;;;;;;;;;5064890;28;20140;-80
2023/06/14 08:32:44;;;;;;;6.05;4.00;;;;;;;;;;5048329;28;20071;-79
2023/06/14 08:35:12;;;;;;;9.20;4.60;;;;;;;;;;5064250;28;20029;-80
2023/06/14 08:37:41;;;;;;;4.63;4.13;;;;;;;;;;5046418;28;20489;-78
2023/06/14 08:40:16;;;;;;;6.18;4.43;;;;;;;;;;5065013;28;20103;-77
2023/06/14 08:42:43;;;;;;;6.22;4.53;;;;;;;;;;5063370;28;20028;-76
2023/06/14 08:45:09;;;;;;;4.93;4.25;;;;;;;;;;5062706;28;20396;-76
2023/06/14 08:47:36;;;;;;;6.18;4.70;;;;;;;;;;5044925;28;20025;-77
2023/06/14 08:50:04;;;;;;;5.95;4.20;;;;;;;;;;5046209;28;20035;-81
2023/06/14 08:52:34;;;;;;;7.28;4.43;;;;;;;;;;5046656;28;20024;-79
2023/06/14 08:55:02;;;;;;;8.40;5.40;;;;;;;;;;5065391;28;20370;-82
2023/06/14 08:57:30;;;;;;;5.43;4.50;;;;;;;;;;5062373;28;20040;-81
2023/06/14 08:59:57;;;;;;;6.53;4.32;;;;;;;;;;5032214;28;20040;-78
2023/06/14 09:02:25;;;;;;;8.63;5.00;;;;;;;;;;5062905;28;20028;-77
2023/06/14 09:04:51;;;;;;;7.30;4.85;;;;;;;;;;5063777;28;20033;-80
2023/06/14 09:07:17;;;;;;;6.07;3.83;;;;;;;;;;5043644;28;20107;-79
2023/06/14 09:09:44;;;;;;;5.85;4.85;;;;;;;;;;5062434;28;20032;-80
2023/06/14 09:12:13;;;;;;;5.97;4.35;;;;;;;;;;5043903;28;20032;-81
2023/06/14 09:14:42;;;;;;;6.65;4.43;;;;;;;;;;5064563;28;20033;-80
2023/06/14 09:17:08;;;;;;;7.38;4.60;;;;;;;;;;5060027;28;20032;-82
2023/06/14 09:19:36;;;;;;;7.20;4.50;;;;;;;;;;5065424;28;20094;-82
2023/06/14 09:22:03;;;;;;;5.88;4.22;;;;;;;;;;5064107;28;20055;-81
2023/06/14 09:24:30;;;;;;;5.25;3.80;;;;;;;;;;5066476;28;20028;-80
2023/06/14 09:26:57;;;;;;;4.38;3.80;;;;;;;;;;5063520;28;20026;-82
2023/06/14 09:29:23;;;;;;;6.72;4.80;;;;;;;;;;5060588;28;20008;-80
2023/06/14 09:31:50;;;;;;;5.13;3.88;;;;;;;;;;5060173;28;20381;-81
2023/06/14 09:34:19;;;;;;;5.13;3.63;;;;;;;;;;5059133;28;20795;-80
2023/06/14 09:36:45;;;;;;;6.10;3.85;;;;;;;;;;5042909;28;20028;-79
2023/06/14 09:39:17;;;;;;;4.93;3.67;;;;;;;;;;5057856;28;20021;-81
2023/06/14 09:41:43;;;;;;;6.25;3.25;;;;;;;;;;5040253;28;20041;-80
2023/06/14 09:44:10;;;;;;;4.72;3.45;;;;;;;;;;5044067;28;20214;-79
2023/06/14 09:46:37;;;;;;;5.82;3.85;;;;;;;;;;5059041;28;20025;-80
2023/06/14 09:49:04;;;;;;;5.53;3.67;;;;;;;;;;5058808;28;20093;-79
2023/06/14 09:51:31;;;;;;;4.50;3.30;;;;;;;;;;5041458;28;20402;-79
2023/06/14 09:54:01;;;;;;;4.28;3.30;;;;;;;;;;5043971;28;20025;-79
2023/06/14 09:56:31;;;;;;;4.38;2.85;;;;;;;;;;5045587;28;20025;-82
2023/06/14 09:58:58;;;;;;;5.32;3.67;;;;;;;;;;5064220;28;20025;-80
2023/06/14 10:01:31;;;;;;;3.28;2.97;;;;;;;;;;5048494;28;20021;-83
2023/06/14 10:04:05;;;;;;;4.63;2.95;;;;;;;;;;5047423;28;20044;-80
2023/06/14 10:06:31;;;;;;;6.10;3.40;;;;;;;;;;5045732;28;20086;-79
2023/06/14 10:08:59;;;;;;;4.07;3.22;;;;;;;;;;5045698;28;20083;-81
2023/06/14 10:11:27;;;;;;;4.75;3.05;;;;;;;;;;5047804;28;20025;-82
2023/06/14 10:13:57;;;;;;;4.43;3.10;;;;;;;;;;5049466;28;20017;-78
2023/06/14 10:16:27;;;;;;;5.53;3.30;;;;;;;;;;5046490;28;20017;-78
2023/06/14 10:18:59;;;;;;;5.28;3.55;;;;;;;;;;5059181;28;20036;-76
2023/06/14 10:21:52;;;;;;;4.93;3.30;;;;;;;;;;5042030;28;20460;-76
2023/06/14 10:24:20;;;;;;;8.13;3.85;;;;;;;;;;5046275;28;20060;-76
2023/06/14 10:26:54;;;;;;;4.35;3.42;;;;;;;;;;5065535;28;20032;-81
2023/06/14 10:29:21;;;;;;;4.97;3.30;;;;;;;;;;5063929;28;20027;-77
2023/06/14 10:31:51;;;;;;;5.50;3.45;;;;;;;;;;5043004;28;20037;-76
2023/06/14 10:34:24;;;;;;;6.75;3.38;;;;;;;;;;5059413;28;20036;-77
2023/06/14 10:37:04;;;;;;;5.03;3.35;;;;;;;;;;5046055;28;20037;-76
2023/06/14 10:39:30;;;;;;;6.53;3.78;;;;;;;;;;5046060;28;20033;-79
2023/06/14 10:41:57;;;;;;;5.80;3.53;;;;;;;;;;5045620;28;20397;-76
2023/06/14 10:44:23;;;;;;;5.88;3.22;;;;;;;;;;5045420;28;20032;-76
2023/06/14 10:46:49;;;;;;;7.07;3.75;;;;;;;;;;5047060;28;20028;-76
2023/06/14 10:49:35;;;;;;;7.50;3.17;;;;;;;;;;5047788;28;20029;-78
2023/06/14 10:52:06;;;;;;;5.00;3.13;;;;;;;;;;5034445;28;20033;-79
2023/06/14 10:54:32;;;;;;;8.23;3.60;;;;;;;;;;5046014;28;20064;-78
2023/06/14 10:56:59;;;;;;;8.68;4.03;;;;;;;;;;5043691;28;20489;-76
2023/06/14 10:59:25;;;;;;;9.48;5.18;;;;;;;;;;5061100;28;20029;-80
2023/06/14 11:01:54;;;;;;;10.43;5.20;;;;;;;;;;5041051;28;20485;-77
2023/06/14 11:04:21;;;;;;;7.25;4.43;;;;;;;;;;5060911;28;20025;-76
2023/06/14 11:06:52;;;;;;;7.10;4.50;;;;;;;;;;5060690;28;20115;-82
2023/06/14 11:09:37;;;;;;;8.23;4.03;;;;;;;;;;5044670;28;20501;-76
2023/06/14 11:12:04;;;;;;;8.40;3.70;;;;;;;;;;5041803;28;20021;-78
2023/06/14 11:14:31;;;;;;;7.32;4.15;;;;;;;;;;5060042;28;20051;-76
2023/06/14 11:16:57;;;;;;;8.15;3.80;;;;;;;;;;5042367;28;20056;-79
2023/06/14 11:19:24;;;;;;;5.75;3.60;;;;;;;;;;5060002;28;20772;-77
2023/06/14 11:21:50;;;;;;;7.68;3.67;;;;;;;;;;5041511;28;20108;-79
2023/06/14 11:24:17;;;;;;;4.68;3.13;;;;;;;;;;5057934;28;20456;-80
2023/06/14 11:26:43;;;;;;;7.93;3.85;;;;;;;;;;5059540;28;20060;-79
2023/06/14 11:29:09;;;;;;;7.05;3.70;;;;;;;;;;5044279;28;20058;-78
2023/06/14 11:31:36;;;;;;;7.03;3.28;;;;;;;;;;5044333;28;20051;-77
2023/06/14 11:34:03;;;;;;;5.55;3.45;;;;;;;;;;5042663;28;20056;-77
2023/06/14 11:36:31;;;;;;;8.05;3.80;;;;;;;;;;5045599;28;20021;-77
2023/06/14 11:39:01;;;;;;;8.13;3.83;;;;;;;;;;5044857;28;20851;-77
2023/06/14 11:41:33;;;;;;;8.70;3.42;;;;;;;;;;5046121;28;20028;-76
2023/06/14 11:44:00;;;;;;;7.07;4.20;;;;;;;;;;5044628;28;20044;-80
2023/06/14 11:46:26;;;;;;;4.45;3.70;;;;;;;;;;5062347;28;20019;-77
2023/06/14 11:48:53;;;;;;;5.30;3.85;;;;;;;;;;5058703;28;20118;-77
2023/06/14 11:51:20;;;;;;;5.60;3.88;;;;;;;;;;5044465;28;20099;-77
2023/06/14 11:53:46;;;;;;;4.28;3.60;;;;;;;;;;5043272;28;20553;-77
2023/06/14 11:56:13;;;;;;;5.90;4.32;;;;;;;;;;5043866;28;20033;-78
2023/06/14 11:58:39;;;;;;;6.82;3.70;;;;;;;;;;5044666;28;20043;-78
2023/06/14 12:01:06;;;;;;;7.68;4.20;;;;;;;;;;5042111;28;20036;-84
2023/06/14 12:03:32;;;;;;;6.18;4.32;;;;;;;;;;5062696;28;20090;-83
2023/06/14 12:06:07;;;;;;;5.35;4.00;;;;;;;;;;5059989;28;20033;-78
2023/06/14 12:08:39;;;;;;;6.72;4.20;;;;;;;;;;5057719;28;20409;-76
2023/06/14 12:11:13;;;;;;;6.55;4.40;;;;;;;;;;5041469;28;20031;-80
2023/06/14 12:13:40;;;;;;;5.25;4.10;;;;;;;;;;5040811;28;20029;-77
2023/06/14 12:16:07;;;;;;;9.65;3.90;;;;;;;;;;5057671;28;20116;-79
2023/06/14 12:18:34;;;;;;;7.93;3.67;;;;;;;;;;5043063;28;20029;-78
2023/06/14 12:21:06;;;;;;;7.85;4.18;;;;;;;;;;5041774;28;20048;-79
2023/06/14 12:23:45;;;;;;;8.02;4.00;;;;;;;;;;5045758;28;20056;-78
2023/06/14 12:26:13;;;;;;;6.30;4.80;;;;;;;;;;5044191;28;20106;-77
2023/06/14 12:28:41;;;;;;;7.38;4.10;;;;;;;;;;5057815;28;20029;-79
2023/06/14 12:31:08;;;;;;;8.23;4.25;;;;;;;;;;5046714;28;20036;-78
2023/06/14 12:33:34;;;;;;;8.20;3.85;;;;;;;;;;5063132;28;20024;-78
2023/06/14 12:36:00;;;;;;;6.18;3.70;;;;;;;;;;5060639;28;20040;-78
2023/06/14 12:38:27;;;;;;;5.20;4.13;;;;;;;;;;5066806;28;20095;-80
2023/06/14 12:40:53;;;;;;;7.47;4.20;;;;;;;;;;5064418;28;20123;-78
2023/06/14 12:43:19;;;;;;;5.85;3.92;;;;;;;;;;5064147;28;20439;-79
2023/06/14 12:45:45;;;;;;;7.25;4.03;;;;;;;;;;5064962;28;20446;-82
2023/06/14 12:48:11;;;;;;;7.47;4.07;;;;;;;;;;5063959;28;20032;-77
2023/06/14 12:50:37;;;;;;;9.05;5.85;;;;;;;;;;5061792;28;20036;-77
2023/06/14 12:53:04;;;;;;;5.25;3.55;;;;;;;;;;5064687;28;20032;-76
2023/06/14 12:55:30;;;;;;;7.50;4.30;;;;;;;;;;5045293;28;20024;-76
2023/06/14 12:57:56;;;;;;;6.82;4.30;;;;;;;;;;5061331;28;20372;-78
2023/06/14 13:00:22;;;;;;;7.50;5.97;;;;;;;;;;5042344;28;20033;-79
2023/06/14 13:02:48;;;;;;;4.63;4.00;;;;;;;;;;5063347;28;20032;-77
2023/06/14 13:05:15;;;;;;;7.13;4.55;;;;;;;;;;5045056;28;20035;-79
2023/06/14 13:07:42;;;;;;;6.88;4.88;;;;;;;;;;5045532;28;20040;-78
2023/06/14 13:10:08;;;;;;;5.50;4.10;;;;;;;;;;5061322;28;20497;-77
2023/06/14 13:12:34;;;;;;;5.03;3.55;;;;;;;;;;5061387;28;20056;-77
2023/06/14 13:15:00;;;;;;;7.35;4.28;;;;;;;;;;5059723;28;20021;-77
2023/06/14 13:17:26;;;;;;;7.38;3.72;;;;;;;;;;5062152;28;20113;-77
2023/06/14 13:19:53;;;;;;;6.30;3.55;;;;;;;;;;5043496;28;20047;-78
2023/06/14 13:22:19;;;;;;;6.32;3.65;;;;;;;;;;5060685;28;20035;-77
2023/06/14 13:24:45;;;;;;;4.85;3.80;;;;;;;;;;5058946;28;20586;-79
2023/06/14 13:27:14;;;;;;;6.47;3.90;;;;;;;;;;5062787;28;20037;-77
2023/06/14 13:29:40;;;;;;;6.07;3.55;;;;;;;;;;5061816;28;20017;-77
2023/06/14 13:32:06;;;;;;;6.78;3.65;;;;;;;;;;5061324;28;20662;-79
2023/06/14 13:34:32;;;;;;;7.57;4.05;;;;;;;;;;5059980;28;20032;-78
2023/06/14 13:36:59;;;;;;;5.70;3.30;;;;;;;;;;5048350;28;20056;-78
2023/06/14 13:39:25;;;;;;;6.30;3.58;;;;;;;;;;5041608;28;20025;-79
2023/06/14 13:41:52;;;;;;;4.70;3.67;;;;;;;;;;5047640;28;20050;-79
2023/06/14 13:44:21;;;;;;;4.63;3.60;;;;;;;;;;5062055;28;20033;-79
2023/06/14 13:46:47;;;;;;;6.78;3.67;;;;;;;;;;5060959;28;20035;-80
2023/06/14 13:49:13;;;;;;;4.70;3.30;;;;;;;;;;5062045;28;20046;-78
2023/06/14 13:51:39;;;;;;;5.38;3.65;;;;;;;;;;5060051;28;20512;-80
2023/06/14 13:54:05;;;;;;;6.65;3.97;;;;;;;;;;5047017;28;20031;-79
2023/06/14 13:56:32;;;;;;;6.78;3.70;;;;;;;;;;5043109;28;20557;-78
2023/06/14 13:58:58;;;;;;;9.77;3.83;;;;;;;;;;5064002;28;20029;-79
2023/06/14 14:01:26;;;;;;;5.80;3.42;;;;;;;;;;5062061;28;20079;-79
2023/06/14 14:03:52;;;;;;;4.95;3.13;;;;;;;;;;5043535;28;20045;-78
2023/06/14 14:06:18;;;;;;;6.35;3.40;;;;;;;;;;5064071;28;21437;-76
2023/06/14 14:08:46;;;;;;;5.85;3.35;;;;;;;;;;5063966;28;20033;-78
2023/06/14 14:11:12;;;;;;;5.78;3.75;;;;;;;;;;5062758;28;20042;-76
2023/06/14 14:13:40;;;;;;;6.35;3.88;;;;;;;;;;5041006;28;20392;-77
2023/06/14 14:16:06;;;;;;;6.40;3.45;;;;;;;;;;5063437;28;20035;-76
2023/06/14 14:18:32;;;;;;;7.32;3.78;;;;;;;;;;5059304;28;20469;-76
2023/06/14 14:21:00;;;;;;;5.47;3.38;;;;;;;;;;5062571;28;20697;-78
2023/06/14 14:23:26;;;;;;;4.35;3.50;;;;;;;;;;5044417;28;20056;-79
2023/06/14 14:25:52;;;;;;;4.40;3.58;;;;;;;;;;5042277;28;20032;-76
2023/06/14 14:28:20;;;;;;;5.45;3.78;;;;;;;;;;5064191;28;20028;-76
2023/06/14 14:30:47;;;;;;;6.95;3.60;;;;;;;;;;5060570;28;20035;-78
2023/06/14 14:33:15;;;;;;;5.28;3.58;;;;;;;;;;5058907;28;20028;-77
2023/06/14 14:35:42;;;;;;;5.10;3.45;;;;;;;;;;5058256;28;20048;-76
2023/06/14 14:38:09;;;;;;;5.80;3.75;;;;;;;;;;5045665;28;20036;-76
2023/06/14 14:40:35;;;;;;;6.88;3.72;;;;;;;;;;5063666;28;20075;-83